大阪空港の過去48時間の天気

大阪空港 (Osaka/Intl)

現在時刻: 10/15 06:46 JST (10/14 21:46 UTC) 以下の時間は現地時間です。

過去48時間のMETAR気象情報
時間 風向 風速(m/s) 視程 気温(℃) 湿度(%) 気圧(hPa) 天気現象
15 06:00 不定 1 10km以上 16 88 1021
15 05:00 不定 1 10km以上 15 94 1021
14 20:00 3 10km以上 20 78 1020
14 19:00 3 10km以上 21 78 1020
14 18:00 4 10km以上 20 78 1019
14 17:00 4 10km以上 21 78 1018
14 16:00 3 10km以上 22 73 1018
14 15:00 北北東 2 10km以上 21 83 1018
14 14:00 北西 3 10km以上 20 94 1018 弱いしゅう雨
14 13:00 北西 2 10km以上 20 83 1018 弱いしゅう雨
14 12:00 不定 1 10km以上 19 88 1018 弱いしゅう雨
14 11:00 北西 3 10km以上 19 88 1019 周辺でしゅう雨
14 10:00 北西 3 10km以上 18 94 1019 弱いしゅう雨
14 09:00 北西 3 10km以上 18 88 1019 弱いしゅう雨 もや
14 08:00 北北東 2 10km以上 18 83 1019 弱いしゅう雨
14 07:00 東南東 2 10km以上 18 83 1019
14 06:00 北西 2 10km以上 18 83 1019
14 05:00 北西 2 10km以上 18 77 1019
RJOO 142100Z VRB01KT 9999 FEW025 BKN035 16/14 Q1021 RMK 1CU025 5CU035 A3018
RJOO 142000Z VRB02KT 9999 FEW030 SCT040 15/14 Q1021 RMK 1CU030 4CU040 A3017
RJOO 141100Z 01006KT 9999 FEW015 BKN030 BKN070 20/16 Q1020 RMK 1CU015 5CU030 6AC070 A3013
RJOO 141000Z 01006KT 340V060 9999 FEW015 BKN025 BKN050 21/17 Q1020 RMK 1CU015 5CU025 6SC050 A3012
RJOO 140900Z 36007KT 9999 FEW015 SCT025 BKN050 20/16 Q1019 RMK 1CU015 3CU025 6SC050 A3010
RJOO 140800Z 36007KT 9999 FEW015 SCT025 BKN050 21/17 Q1018 RMK 1CU015 3CU025 5SC050 A3008
RJOO 140700Z 36005KT 310V060 9999 FEW015 SCT025 BKN070 22/17 Q1018 RMK 1CU015 3CU025 5AC070 A3007
RJOO 140600Z 02004KT 320V060 9999 FEW010 SCT020 BKN070 21/18 Q1018 RMK 1CU010 4CU020 5AC070 A3006
RJOO 140500Z 32006KT 9999 -SHRA FEW008 SCT015 BKN040 20/19 Q1018 RMK 1ST008 4CU015 6CU040 A3006
RJOO 140400Z 31004KT 270V330 9999 -SHRA FEW008 SCT015 BKN040 20/17 Q1018 RMK 1ST008 3CU015 7CU040 A3006
RJOO 140300Z VRB02KT 9999 -SHRA FEW008 SCT020 BKN040 19/17 Q1018 RMK 1ST008 3CU020 7CU040 A3008
RJOO 140200Z 32006KT 9999 VCSH FEW006 SCT025 BKN040 19/17 Q1019 RMK 1ST006 4CU025 7CU040 A3010
RJOO 140100Z 32005KT 280V350 9999 -SHRA FEW006 SCT025 BKN040 18/17 Q1019 RMK 1ST006 4CU025 7CU040 A3011
RJOO 140000Z 31005KT 9999 -SHRA BR FEW010 BKN025 BKN040 18/16 Q1019 RMK 1CU010 5CU025 6CU040 A3011 4500W-NW
RJOO 132300Z 02004KT 9999 -SHRA FEW015 SCT030 BKN040 18/15 Q1019 RMK 1CU015 3CU030 5CU040 A3010
RJOO 132200Z 12003KT 9999 FEW015 SCT030 BKN040 18/15 Q1019 RMK 1CU015 3CU030 5CU040 A3010
RJOO 132100Z 31003KT 220V340 9999 FEW020 SCT030 BKN050 18/15 Q1019 RMK 1CU020 3CU030 5SC050 A3009
RJOO 132000Z 31003KT 260V350 9999 FEW025 SCT050 BKN090 18/14 Q1019 RMK 1CU025 4SC050 5AC090 A3009